Time;durP1;ratioP1;P1;durP2;ratioP2;P2;SDS_P1;SDS_P2;PMS_P1;PMS_P2;Temp;Humidity;BMP_temperature;BMP_pressure;BME280_temperature;BME280_humidity;BME280_pressure;Samples;Min_cycle;Max_cycle;Signal;HPM_P1;HPM_P2
2022/07/07 00:02:21;;;;;;;4.43;3.67;;;13.50;99.90;;;;;;5094747;28;20196;-75
2022/07/07 00:04:49;;;;;;;4.33;3.67;;;13.40;99.90;;;;;;5094579;28;20242;-76
2022/07/07 00:07:15;;;;;;;4.57;4.07;;;13.40;99.90;;;;;;5094589;28;20602;-76
2022/07/07 00:09:42;;;;;;;6.37;3.80;;;13.40;99.90;;;;;;5094567;28;20263;-75
2022/07/07 00:12:09;;;;;;;4.90;4.00;;;13.40;99.90;;;;;;5094558;28;20249;-76
2022/07/07 00:14:35;;;;;;;6.67;3.70;;;13.40;99.90;;;;;;5094521;28;20207;-75
2022/07/07 00:17:02;;;;;;;5.13;3.50;;;13.50;99.90;;;;;;5094493;28;20249;-75
2022/07/07 00:19:30;;;;;;;4.27;3.60;;;13.50;99.90;;;;;;5094209;28;20227;-76
2022/07/07 00:21:58;;;;;;;7.90;3.40;;;13.50;99.90;;;;;;5094498;28;20226;-76
2022/07/07 00:24:25;;;;;;;4.10;3.50;;;13.50;99.90;;;;;;5094260;28;20192;-76
2022/07/07 00:26:51;;;;;;;4.87;4.00;;;13.60;99.90;;;;;;5094362;28;20274;-75
2022/07/07 00:29:18;;;;;;;5.17;3.70;;;13.60;99.90;;;;;;5094046;28;20219;-75
2022/07/07 00:31:45;;;;;;;4.13;3.70;;;13.60;99.90;;;;;;5094115;28;20195;-76
2022/07/07 00:34:11;;;;;;;6.27;3.77;;;13.60;99.90;;;;;;5094043;28;20249;-75
2022/07/07 00:36:39;;;;;;;5.43;3.80;;;13.60;99.90;;;;;;5094314;28;20285;-76
2022/07/07 00:39:07;;;;;;;6.40;3.73;;;13.70;99.90;;;;;;5093845;28;20224;-75
2022/07/07 00:41:34;;;;;;;6.13;3.90;;;13.70;99.90;;;;;;5093809;28;20724;-75
2022/07/07 00:44:01;;;;;;;4.53;3.57;;;13.80;99.90;;;;;;5093982;28;20254;-76
2022/07/07 00:46:40;;;;;;;9.27;4.00;;;13.90;99.90;;;;;;5093789;28;20192;-75
2022/07/07 00:49:07;;;;;;;4.80;4.20;;;13.80;99.90;;;;;;5093677;28;20723;-75
2022/07/07 00:51:35;;;;;;;5.40;4.17;;;13.90;99.90;;;;;;5093783;28;20228;-76
2022/07/07 00:54:02;;;;;;;4.57;4.10;;;13.90;99.90;;;;;;5093716;28;20204;-75
2022/07/07 00:56:30;;;;;;;5.43;4.03;;;13.90;99.90;;;;;;5093696;28;20203;-76
2022/07/07 00:59:02;;;;;;;5.17;4.50;;;13.90;99.90;;;;;;5093553;28;20222;-76
2022/07/07 01:01:29;;;;;;;5.37;4.23;;;13.90;99.90;;;;;;5093013;28;20196;-76
2022/07/07 01:03:56;;;;;;;5.90;4.53;;;13.90;99.90;;;;;;5093589;28;20196;-76
2022/07/07 01:06:23;;;;;;;5.87;4.30;;;13.90;99.90;;;;;;5093556;28;20200;-76
2022/07/07 01:08:52;;;;;;;4.50;4.00;;;13.90;99.90;;;;;;5093256;28;20196;-76
2022/07/07 01:11:19;;;;;;;4.70;4.27;;;13.90;99.90;;;;;;5093355;28;20220;-76
2022/07/07 01:13:47;;;;;;;5.13;4.00;;;14.00;99.90;;;;;;5093250;28;20200;-75
2022/07/07 01:16:13;;;;;;;4.57;4.17;;;14.00;99.90;;;;;;5093430;28;20208;-76
2022/07/07 01:18:41;;;;;;;4.20;3.80;;;13.90;99.90;;;;;;5093516;28;20247;-75
2022/07/07 01:21:12;;;;;;;5.13;4.00;;;13.90;99.90;;;;;;5093300;28;20230;-76
2022/07/07 01:23:40;;;;;;;6.40;4.37;;;14.00;99.90;;;;;;5093385;28;20200;-76
2022/07/07 01:26:07;;;;;;;6.87;4.50;;;14.00;99.90;;;;;;5093303;28;20197;-76
2022/07/07 01:28:34;;;;;;;6.60;4.63;;;13.90;99.90;;;;;;5093016;28;20556;-75
2022/07/07 01:31:00;;;;;;;4.57;4.17;;;13.90;99.90;;;;;;5093393;28;20224;-75
2022/07/07 01:33:27;;;;;;;7.60;4.47;;;13.90;99.90;;;;;;5093087;28;20192;-75
2022/07/07 01:35:54;;;;;;;6.37;4.07;;;13.90;99.90;;;;;;5093166;28;20211;-76
2022/07/07 01:38:20;;;;;;;6.83;3.93;;;13.90;99.90;;;;;;5092794;28;20228;-75
2022/07/07 01:40:48;;;;;;;5.00;4.10;;;13.90;99.90;;;;;;5093010;28;20231;-76
2022/07/07 01:43:15;;;;;;;6.23;4.10;;;13.90;99.90;;;;;;5093223;28;20269;-76
2022/07/07 01:45:41;;;;;;;9.40;4.07;;;13.90;99.90;;;;;;5093116;28;20197;-75
2022/07/07 01:48:08;;;;;;;4.80;4.00;;;14.00;99.90;;;;;;5093047;28;20200;-75
2022/07/07 01:50:35;;;;;;;4.60;3.97;;;14.00;99.90;;;;;;5092940;28;20269;-75
2022/07/07 01:53:01;;;;;;;5.63;4.07;;;14.00;99.90;;;;;;5092808;28;20655;-75
2022/07/07 01:55:28;;;;;;;6.47;4.17;;;14.00;99.90;;;;;;5092722;28;20242;-76
2022/07/07 01:57:56;;;;;;;4.77;4.27;;;14.00;99.90;;;;;;5092965;28;20265;-76
2022/07/07 02:00:23;;;;;;;4.17;3.80;;;14.00;99.90;;;;;;5092944;28;20200;-76
2022/07/07 02:02:49;;;;;;;6.40;3.97;;;13.90;99.90;;;;;;5092710;28;20608;-76
2022/07/07 02:05:16;;;;;;;5.00;4.13;;;14.00;99.90;;;;;;5092793;28;20203;-76
2022/07/07 02:07:45;;;;;;;7.53;4.07;;;13.90;99.90;;;;;;5092769;28;20196;-76
2022/07/07 02:10:12;;;;;;;6.40;4.07;;;13.90;99.90;;;;;;5092462;28;20216;-73
2022/07/07 02:12:38;;;;;;;4.90;4.40;;;13.90;99.90;;;;;;5095817;28;20602;-73
2022/07/07 02:15:08;;;;;;;4.53;4.10;;;13.90;99.90;;;;;;5097114;28;20204;-74
2022/07/07 02:17:34;;;;;;;5.23;3.97;;;13.90;99.90;;;;;;5096916;28;20199;-74
2022/07/07 02:20:01;;;;;;;4.93;4.47;;;13.90;99.90;;;;;;5096704;28;20200;-74
2022/07/07 02:22:28;;;;;;;5.80;4.67;;;13.80;99.90;;;;;;5096638;28;20196;-74
2022/07/07 02:24:54;;;;;;;5.20;4.70;;;13.80;99.90;;;;;;5096754;28;20196;-74
2022/07/07 02:27:21;;;;;;;5.60;4.30;;;13.80;99.90;;;;;;5096765;28;20253;-76
2022/07/07 02:29:48;;;;;;;7.33;4.60;;;13.80;99.90;;;;;;5096415;28;20655;-74
2022/07/07 02:32:16;;;;;;;6.10;4.23;;;13.80;99.90;;;;;;5096402;28;20258;-74
2022/07/07 02:34:42;;;;;;;5.27;4.33;;;13.80;99.90;;;;;;5096379;28;20241;-75
2022/07/07 02:37:09;;;;;;;5.60;4.30;;;13.80;99.90;;;;;;5095968;28;20675;-75
2022/07/07 02:39:35;;;;;;;5.90;4.57;;;13.80;99.90;;;;;;5096510;28;20253;-75
2022/07/07 02:42:02;;;;;;;6.23;4.40;;;13.80;99.90;;;;;;5096320;28;20728;-76
2022/07/07 02:44:29;;;;;;;6.27;4.47;;;13.90;99.90;;;;;;5096366;28;20200;-76
2022/07/07 02:46:55;;;;;;;8.23;4.50;;;13.90;99.90;;;;;;5096153;28;20200;-75
2022/07/07 02:49:23;;;;;;;5.10;4.60;;;13.80;99.90;;;;;;5096078;28;20200;-74
2022/07/07 02:51:50;;;;;;;7.37;4.87;;;13.80;99.90;;;;;;5095905;28;20718;-75
2022/07/07 02:54:17;;;;;;;8.50;4.60;;;13.80;99.90;;;;;;5096125;28;20250;-74
2022/07/07 02:56:44;;;;;;;6.00;4.90;;;13.80;99.90;;;;;;5096119;28;20199;-75
2022/07/07 02:59:11;;;;;;;5.33;4.70;;;13.70;99.90;;;;;;5096003;28;20200;-74
2022/07/07 03:01:37;;;;;;;6.30;4.77;;;13.80;99.90;;;;;;5095891;28;20200;-75
2022/07/07 03:04:04;;;;;;;7.73;4.63;;;13.70;99.90;;;;;;5095671;28;20196;-75
2022/07/07 03:06:32;;;;;;;5.93;5.07;;;13.60;99.90;;;;;;5095965;28;20261;-74
2022/07/07 03:08:59;;;;;;;5.30;4.50;;;13.70;99.90;;;;;;5095612;28;20722;-75
2022/07/07 03:11:25;;;;;;;5.60;5.10;;;13.70;99.90;;;;;;5095618;28;20694;-75
2022/07/07 03:13:52;;;;;;;5.00;4.60;;;13.70;99.90;;;;;;5095539;28;20577;-74
2022/07/07 03:16:19;;;;;;;4.77;4.37;;;13.80;99.90;;;;;;5095747;28;20253;-74
2022/07/07 03:18:45;;;;;;;6.97;4.87;;;13.80;99.90;;;;;;5095430;28;20261;-75
2022/07/07 03:21:12;;;;;;;7.63;4.90;;;13.80;99.90;;;;;;5095692;28;20257;-74
2022/07/07 03:23:40;;;;;;;5.50;5.00;;;13.80;99.90;;;;;;5094757;28;20602;-74
2022/07/07 03:26:08;;;;;;;5.40;4.90;;;13.80;99.90;;;;;;5095262;28;20196;-75
2022/07/07 03:28:34;;;;;;;8.10;5.23;;;13.80;99.90;;;;;;5095423;28;20292;-75
2022/07/07 03:31:01;;;;;;;7.83;5.00;;;13.70;99.90;;;;;;5095332;28;20552;-75
2022/07/07 03:33:27;;;;;;;5.00;4.60;;;13.80;99.90;;;;;;5095199;28;20196;-75
2022/07/07 03:35:54;;;;;;;7.23;5.17;;;13.70;99.90;;;;;;5095270;28;20212;-75
2022/07/07 03:38:21;;;;;;;5.53;4.77;;;13.80;99.90;;;;;;5095133;28;20228;-74
2022/07/07 03:40:49;;;;;;;7.37;4.77;;;13.80;99.90;;;;;;5095051;28;20212;-75
2022/07/07 03:43:15;;;;;;;7.23;4.60;;;13.80;99.90;;;;;;5095252;28;20233;-74
2022/07/07 03:45:42;;;;;;;5.00;4.50;;;13.80;99.90;;;;;;5095056;28;20200;-73
2022/07/07 03:48:09;;;;;;;7.27;4.50;;;13.80;99.90;;;;;;5095454;28;20204;-76
2022/07/07 03:50:35;;;;;;;7.73;4.70;;;13.90;99.90;;;;;;5094968;28;20295;-75
2022/07/07 03:53:02;;;;;;;5.73;4.10;;;13.80;99.90;;;;;;5095217;28;20246;-74
2022/07/07 03:55:29;;;;;;;6.63;4.70;;;13.90;99.90;;;;;;5094923;28;20273;-74
2022/07/07 03:57:56;;;;;;;5.73;4.20;;;14.10;99.90;;;;;;5094907;28;20269;-74
2022/07/07 04:00:23;;;;;;;8.10;4.60;;;14.10;99.90;;;;;;5094764;28;20692;-74
2022/07/07 04:02:50;;;;;;;7.90;5.17;;;14.10;99.90;;;;;;5095071;28;20204;-74
2022/07/07 04:05:17;;;;;;;6.17;4.40;;;14.10;99.90;;;;;;5094967;28;20227;-74
2022/07/07 04:07:45;;;;;;;7.07;4.60;;;14.10;99.90;;;;;;5094859;28;20200;-75
2022/07/07 04:10:12;;;;;;;4.63;4.23;;;14.10;99.90;;;;;;5095055;28;20192;-74
2022/07/07 04:12:39;;;;;;;5.50;4.37;;;14.20;99.90;;;;;;5095110;28;20224;-75
2022/07/07 04:15:08;;;;;;;4.60;4.20;;;14.10;99.90;;;;;;5094923;28;20205;-75
2022/07/07 04:17:35;;;;;;;4.40;4.00;;;14.10;99.90;;;;;;5094925;28;20200;-75
2022/07/07 04:20:02;;;;;;;5.00;4.37;;;14.10;99.90;;;;;;5094366;28;20200;-75
2022/07/07 04:22:28;;;;;;;5.10;4.60;;;14.10;99.90;;;;;;5094575;28;20197;-75
2022/07/07 04:24:55;;;;;;;5.27;4.80;;;14.20;99.90;;;;;;5094305;28;20233;-75
2022/07/07 04:27:22;;;;;;;5.30;4.10;;;14.20;99.90;;;;;;5094265;28;20246;-74
2022/07/07 04:29:48;;;;;;;5.30;4.60;;;14.30;99.90;;;;;;5094537;28;20222;-74
2022/07/07 04:32:16;;;;;;;5.20;4.23;;;14.30;99.90;;;;;;5094386;28;20274;-74
2022/07/07 04:34:43;;;;;;;5.37;3.90;;;14.30;99.90;;;;;;5094327;28;20245;-75
2022/07/07 04:37:10;;;;;;;4.60;4.10;;;14.40;99.90;;;;;;5094012;28;20204;-74
2022/07/07 04:39:36;;;;;;;4.80;4.40;;;14.50;99.90;;;;;;5094155;28;20200;-74
2022/07/07 04:42:03;;;;;;;6.33;4.63;;;14.60;99.90;;;;;;5094036;28;20243;-74
2022/07/07 04:44:30;;;;;;;4.77;4.10;;;14.50;99.90;;;;;;5094085;28;20559;-74
2022/07/07 04:46:57;;;;;;;6.13;4.40;;;14.50;99.90;;;;;;5094143;28;20254;-74
2022/07/07 04:49:25;;;;;;;7.10;4.50;;;14.60;99.90;;;;;;5094022;28;20226;-73
2022/07/07 04:51:51;;;;;;;7.60;4.20;;;14.60;99.90;;;;;;5093844;28;20216;-76
2022/07/07 04:54:18;;;;;;;9.00;4.43;;;14.60;99.90;;;;;;5094026;28;20273;-80
2022/07/07 04:56:45;;;;;;;5.90;4.10;;;14.60;99.90;;;;;;5094216;28;20204;-81
2022/07/07 04:59:11;;;;;;;4.13;3.60;;;14.70;99.90;;;;;;5094302;28;20225;-74
2022/07/07 05:01:38;;;;;;;4.90;4.37;;;14.70;99.90;;;;;;5093891;28;20205;-73
2022/07/07 05:04:05;;;;;;;6.07;4.03;;;14.80;99.90;;;;;;5093834;28;20204;-74
2022/07/07 05:06:33;;;;;;;4.93;4.20;;;14.80;99.90;;;;;;5093646;28;20241;-75
2022/07/07 05:09:00;;;;;;;6.80;4.20;;;14.80;99.90;;;;;;5093438;28;20238;-75
2022/07/07 05:11:26;;;;;;;5.80;3.93;;;14.90;99.90;;;;;;5093721;28;20319;-75
2022/07/07 05:13:53;;;;;;;5.30;3.80;;;15.00;99.90;;;;;;5093597;28;20196;-75
2022/07/07 05:16:20;;;;;;;7.63;3.90;;;15.10;99.90;;;;;;5093579;28;20204;-75
2022/07/07 05:18:46;;;;;;;7.43;3.73;;;15.00;99.90;;;;;;5093484;28;20204;-75
2022/07/07 05:21:13;;;;;;;6.43;3.87;;;15.10;99.90;;;;;;5093353;28;20196;-75
2022/07/07 05:23:41;;;;;;;6.63;4.10;;;15.00;99.90;;;;;;5085388;28;20261;-75
2022/07/07 05:26:08;;;;;;;5.17;3.70;;;15.10;99.90;;;;;;5072596;28;20652;-75
2022/07/07 05:28:36;;;;;;;4.43;3.70;;;15.20;99.90;;;;;;5072958;28;20284;-75
2022/07/07 05:31:03;;;;;;;5.87;3.90;;;15.10;99.90;;;;;;5072912;28;20306;-75
2022/07/07 05:33:29;;;;;;;4.80;4.00;;;15.30;99.90;;;;;;5072841;28;20201;-75
2022/07/07 05:35:56;;;;;;;4.97;3.37;;;15.50;99.90;;;;;;5072650;28;20197;-75
2022/07/07 05:38:23;;;;;;;5.23;3.70;;;15.30;99.90;;;;;;5072476;28;20224;-73
2022/07/07 05:40:51;;;;;;;6.20;3.67;;;15.30;99.90;;;;;;5072773;28;20196;-75
2022/07/07 05:43:17;;;;;;;4.13;3.70;;;15.50;99.90;;;;;;5072867;28;20250;-74
2022/07/07 05:45:44;;;;;;;6.73;3.40;;;15.50;99.90;;;;;;5072413;28;20205;-75
2022/07/07 05:48:10;;;;;;;3.77;3.17;;;15.50;99.90;;;;;;5072346;28;20737;-75
2022/07/07 05:50:37;;;;;;;6.07;3.60;;;15.60;99.90;;;;;;5072552;28;20227;-75
2022/07/07 05:53:04;;;;;;;5.80;3.70;;;15.80;99.90;;;;;;5072217;28;20224;-75
2022/07/07 05:55:31;;;;;;;8.77;3.50;;;15.60;99.90;;;;;;5072570;28;20200;-75
2022/07/07 05:57:59;;;;;;;5.15;3.70;;;15.50;99.90;;;;;;5072562;28;20197;-76
2022/07/07 06:00:26;;;;;;;6.73;4.03;;;15.50;99.90;;;;;;5072461;28;20201;-77
2022/07/07 06:02:53;;;;;;;6.67;4.00;;;15.30;99.90;;;;;;5072270;28;20197;-76
2022/07/07 06:05:19;;;;;;;10.73;5.30;;;15.00;99.90;;;;;;5072569;28;20238;-73
2022/07/07 06:07:46;;;;;;;5.80;4.30;;;14.70;99.90;;;;;;5072776;28;20262;-75
2022/07/07 06:10:14;;;;;;;5.77;4.40;;;14.60;99.90;;;;;;5072607;28;20197;-76
2022/07/07 06:12:41;;;;;;;6.70;4.70;;;14.60;99.90;;;;;;5072618;28;20305;-76
2022/07/07 06:15:10;;;;;;;7.33;5.20;;;14.60;99.90;;;;;;5072435;28;20258;-77
2022/07/07 06:17:37;;;;;;;7.00;4.30;;;14.70;99.90;;;;;;5072416;28;20599;-77
2022/07/07 06:20:05;;;;;;;7.17;4.90;;;14.90;99.90;;;;;;5072481;28;20204;-77
2022/07/07 06:22:32;;;;;;;7.43;4.87;;;15.00;99.90;;;;;;5072626;28;20250;-76
2022/07/07 06:24:58;;;;;;;7.50;4.83;;;15.40;99.90;;;;;;5072449;28;20204;-76
2022/07/07 06:27:26;;;;;;;5.87;4.10;;;15.50;99.90;;;;;;5072586;28;20197;-75
2022/07/07 06:29:55;;;;;;;6.70;4.30;;;15.70;99.90;;;;;;5072255;28;20201;-76
2022/07/07 06:32:23;;;;;;;8.00;4.45;;;15.90;99.90;;;;;;5071940;28;20221;-75
2022/07/07 06:34:49;;;;;;;7.57;4.13;;;15.90;99.90;;;;;;5072031;28;20603;-75
2022/07/07 06:37:16;;;;;;;4.23;3.83;;;16.20;99.90;;;;;;5072224;28;20205;-75
2022/07/07 06:39:43;;;;;;;5.97;3.67;;;16.50;99.90;;;;;;5072565;28;20592;-77
2022/07/07 06:42:09;;;;;;;7.20;3.83;;;16.90;99.90;;;;;;5072487;28;20197;-76
2022/07/07 06:44:36;;;;;;;7.00;3.65;;;16.90;99.90;;;;;;5072506;28;20209;-77
2022/07/07 06:47:03;;;;;;;6.90;3.72;;;17.20;99.90;;;;;;5072422;28;20201;-75
2022/07/07 06:49:31;;;;;;;8.63;3.55;;;17.50;99.90;;;;;;5072667;28;20223;-75
2022/07/07 06:51:58;;;;;;;8.27;3.70;;;17.70;99.90;;;;;;5072249;28;20221;-75
2022/07/07 06:54:24;;;;;;;6.03;3.10;;;17.90;99.90;;;;;;5072286;28;20197;-76
2022/07/07 06:56:51;;;;;;;3.28;2.97;;;17.90;99.90;;;;;;5072131;28;20194;-76
2022/07/07 06:59:18;;;;;;;9.23;3.42;;;18.00;99.90;;;;;;5074242;28;20300;-76
2022/07/07 07:01:45;;;;;;;4.80;2.85;;;18.10;99.90;;;;;;5075604;28;20737;-77
2022/07/07 07:04:13;;;;;;;3.58;3.10;;;18.10;99.90;;;;;;5075908;28;20196;-77
2022/07/07 07:06:41;;;;;;;5.07;3.10;;;17.90;99.90;;;;;;5075677;28;20201;-76
2022/07/07 07:09:08;;;;;;;4.18;3.03;;;17.80;99.90;;;;;;5075649;28;20250;-76
2022/07/07 07:11:35;;;;;;;4.38;2.88;;;17.70;99.90;;;;;;5075413;28;20545;-76
2022/07/07 07:14:02;;;;;;;4.93;2.88;;;17.80;99.90;;;;;;5075249;28;20200;-76
2022/07/07 07:16:29;;;;;;;3.35;2.67;;;18.00;99.90;;;;;;5075133;28;20204;-76
2022/07/07 07:18:56;;;;;;;4.40;3.20;;;17.90;99.90;;;;;;5075337;28;20212;-76
2022/07/07 07:21:22;;;;;;;6.25;3.35;;;17.80;99.90;;;;;;5075523;28;20193;-76
2022/07/07 07:23:50;;;;;;;3.15;2.85;;;17.80;99.90;;;;;;5075372;28;20205;-75
2022/07/07 07:26:17;;;;;;;6.28;2.80;;;17.70;99.90;;;;;;5075216;28;20199;-76
2022/07/07 07:28:44;;;;;;;4.80;2.50;;;17.50;99.90;;;;;;5075151;28;20201;-75
2022/07/07 07:31:11;;;;;;;3.30;2.50;;;17.50;99.90;;;;;;5075446;28;20250;-76
2022/07/07 07:33:37;;;;;;;6.55;2.33;;;17.50;99.90;;;;;;5074967;28;20557;-75
2022/07/07 07:36:07;;;;;;;6.43;2.72;;;17.60;99.90;;;;;;5075261;28;20717;-76
2022/07/07 07:38:35;;;;;;;5.57;2.58;;;17.60;99.90;;;;;;5074865;28;20270;-75
2022/07/07 07:41:03;;;;;;;4.20;2.50;;;17.60;99.90;;;;;;5074924;28;20232;-76
2022/07/07 07:43:30;;;;;;;6.35;2.90;;;17.40;99.90;;;;;;5074177;28;20197;-76
2022/07/07 07:45:56;;;;;;;7.32;3.25;;;17.30;99.90;;;;;;5075106;28;20278;-74
2022/07/07 07:48:23;;;;;;;3.83;2.80;;;14.50;99.90;;;;;;5074842;28;20595;-73
2022/07/07 07:50:50;;;;;;;7.77;3.17;;;14.30;99.90;;;;;;5074809;28;20696;-73
2022/07/07 07:53:16;;;;;;;8.27;3.27;;;14.30;99.90;;;;;;5074767;28;20282;-73
2022/07/07 07:55:44;;;;;;;5.80;3.27;;;14.60;99.90;;;;;;5074630;28;20204;-73
2022/07/07 07:58:12;;;;;;;4.67;3.23;;;15.10;99.90;;;;;;5074910;28;20292;-74
2022/07/07 08:00:38;;;;;;;5.27;3.37;;;15.40;99.90;;;;;;5074696;28;20659;-74
2022/07/07 08:03:06;;;;;;;9.13;3.90;;;15.60;99.90;;;;;;5074927;28;20197;-74
2022/07/07 08:05:32;;;;;;;3.13;2.90;;;15.50;99.90;;;;;;5074937;28;20197;-74
2022/07/07 08:07:59;;;;;;;4.60;3.10;;;15.50;99.90;;;;;;5074700;28;20201;-74
2022/07/07 08:10:25;;;;;;;3.00;2.80;;;15.30;99.90;;;;;;5073922;28;20664;-74
2022/07/07 08:12:52;;;;;;;6.43;3.83;;;15.20;99.90;;;;;;5074534;28;20290;-74
2022/07/07 08:15:20;;;;;;;6.17;3.73;;;15.10;99.90;;;;;;5074528;28;20246;-73
2022/07/07 08:17:48;;;;;;;6.20;3.57;;;14.80;99.90;;;;;;5074728;28;20262;-73
2022/07/07 08:20:16;;;;;;;6.57;3.93;;;14.60;99.90;;;;;;5074063;28;20628;-73
2022/07/07 08:22:42;;;;;;;5.77;4.47;;;14.40;99.90;;;;;;5074261;28;20246;-73
2022/07/07 08:25:09;;;;;;;6.20;4.50;;;14.40;99.90;;;;;;5074118;28;20255;-73
2022/07/07 08:27:36;;;;;;;6.77;4.70;;;14.40;99.90;;;;;;5074012;28;20660;-73
2022/07/07 08:30:04;;;;;;;5.33;4.83;;;14.40;99.90;;;;;;5074178;28;20209;-73
2022/07/07 08:32:32;;;;;;;9.40;4.90;;;14.30;99.90;;;;;;5074109;28;20307;-73
2022/07/07 08:34:58;;;;;;;7.20;5.23;;;14.10;99.90;;;;;;5074099;28;20247;-73
2022/07/07 08:37:25;;;;;;;7.00;5.17;;;14.10;99.90;;;;;;5073681;28;20255;-73
2022/07/07 08:39:52;;;;;;;9.33;6.07;;;14.10;99.90;;;;;;5074102;28;20193;-73
2022/07/07 08:42:18;;;;;;;13.47;5.33;;;14.00;99.90;;;;;;5073885;28;20205;-74
2022/07/07 08:44:45;;;;;;;6.70;6.00;;;14.00;99.90;;;;;;5073873;28;20204;-73
2022/07/07 08:47:12;;;;;;;6.03;5.40;;;14.10;99.90;;;;;;5073807;28;20270;-73
2022/07/07 08:49:40;;;;;;;9.23;5.90;;;14.00;99.90;;;;;;5073785;28;20200;-73
2022/07/07 08:52:08;;;;;;;7.43;6.70;;;14.00;99.90;;;;;;5073527;28;20603;-72
2022/07/07 08:54:37;;;;;;;7.33;6.63;;;13.90;99.90;;;;;;5073752;28;20607;-73
2022/07/07 08:57:05;;;;;;;10.90;6.97;;;13.90;99.90;;;;;;5073734;28;20266;-72
2022/07/07 08:59:32;;;;;;;7.37;6.67;;;13.80;99.90;;;;;;5073654;28;20197;-72
2022/07/07 09:01:59;;;;;;;9.27;7.17;;;13.80;99.90;;;;;;5073553;28;20201;-72
2022/07/07 09:04:26;;;;;;;8.43;7.00;;;13.90;99.90;;;;;;5073422;28;20197;-72
2022/07/07 09:06:56;;;;;;;9.27;7.23;;;14.00;99.90;;;;;;5073301;28;20205;-72
2022/07/07 09:09:40;;;;;;;8.20;6.90;;;14.00;99.90;;;;;;5073762;28;20196;-72
2022/07/07 09:12:08;;;;;;;7.83;6.83;;;14.00;99.90;;;;;;5073132;28;20602;-72
2022/07/07 09:14:37;;;;;;;7.87;6.60;;;14.40;99.90;;;;;;5073700;28;20227;-72
2022/07/07 09:17:13;;;;;;;8.70;6.30;;;14.60;99.90;;;;;;5073073;28;20231;-72
2022/07/07 09:19:40;;;;;;;10.27;6.67;;;14.90;99.90;;;;;;5073369;28;20196;-72
2022/07/07 09:22:08;;;;;;;8.83;6.60;;;15.10;99.90;;;;;;5072592;28;20201;-72
2022/07/07 09:24:34;;;;;;;7.13;5.70;;;15.40;99.90;;;;;;5073044;28;20530;-73
2022/07/07 09:27:07;;;;;;;8.17;6.40;;;15.50;99.90;;;;;;5073216;28;20247;-72
2022/07/07 09:29:34;;;;;;;9.80;5.53;;;15.50;99.90;;;;;;5073085;28;20219;-73
2022/07/07 09:32:02;;;;;;;10.07;5.67;;;15.60;99.90;;;;;;5073322;28;20201;-73
2022/07/07 09:34:30;;;;;;;7.07;5.85;;;15.70;99.90;;;;;;5072802;28;20714;-73
2022/07/07 09:39:46;;;;;;;8.75;6.15;;;16.40;99.90;;;;;;5073095;28;20783;-73
2022/07/07 09:42:22;;;;;;;6.40;4.95;;;16.60;99.90;;;;;;5073064;28;20238;-73
2022/07/07 09:44:51;;;;;;;9.40;4.60;;;16.80;99.90;;;;;;5073140;28;20230;-73
2022/07/07 09:47:19;;;;;;;7.43;4.30;;;17.30;99.90;;;;;;5073305;28;20599;-74
2022/07/07 09:50:00;;;;;;;7.55;4.38;;;17.90;99.90;;;;;;5072877;28;20204;-73
2022/07/07 09:52:27;;;;;;;8.77;4.60;;;18.50;99.90;;;;;;5072537;28;20568;-75
2022/07/07 09:54:55;;;;;;;9.25;4.53;;;18.20;99.90;;;;;;5072942;28;20201;-75
2022/07/07 09:57:22;;;;;;;4.93;4.22;;;18.70;99.90;;;;;;5072954;28;20279;-75
2022/07/07 09:59:48;;;;;;;5.05;4.07;;;18.70;99.90;;;;;;5073054;28;20200;-75
2022/07/07 10:02:20;;;;;;;5.00;4.28;;;19.40;99.90;;;;;;5072776;28;20201;-76
2022/07/07 10:04:49;;;;;;;9.27;4.88;;;18.50;99.90;;;;;;5072589;28;20204;-76
2022/07/07 10:07:19;;;;;;;6.85;4.70;;;18.30;99.90;;;;;;5072575;28;20300;-76
2022/07/07 10:09:48;;;;;;;6.22;4.68;;;18.10;99.90;;;;;;5072911;28;20246;-75
2022/07/07 10:12:17;;;;;;;5.78;4.65;;;18.60;99.90;;;;;;5072665;28;20193;-75
2022/07/07 10:14:45;;;;;;;8.45;4.53;;;19.20;99.90;;;;;;5072472;28;20588;-75
2022/07/07 10:17:14;;;;;;;4.68;4.13;;;19.10;99.90;;;;;;5072397;28;20227;-75
2022/07/07 10:19:41;;;;;;;4.65;4.25;;;19.30;99.90;;;;;;5072340;28;20599;-75
2022/07/07 10:22:08;;;;;;;6.65;4.57;;;18.80;99.90;;;;;;5072378;28;20656;-75
2022/07/07 10:24:35;;;;;;;4.93;4.40;;;18.80;99.90;;;;;;5072568;28;20208;-76
2022/07/07 10:27:03;;;;;;;7.63;4.95;;;18.70;99.90;;;;;;5072495;28;20281;-75
2022/07/07 10:29:42;;;;;;;7.65;4.35;;;18.40;99.90;;;;;;5072412;28;20197;-75
2022/07/07 10:32:11;;;;;;;6.28;4.30;;;18.40;99.90;;;;;;5072800;28;20197;-75
2022/07/07 10:34:40;;;;;;;7.47;4.60;;;18.40;99.90;;;;;;5076361;28;20557;-75
2022/07/07 10:37:08;;;;;;;5.18;3.85;;;18.50;99.90;;;;;;5076298;28;20201;-75
2022/07/07 10:39:38;;;;;;;4.43;3.83;;;18.60;99.90;;;;;;5075979;28;20278;-75
2022/07/07 10:42:10;;;;;;;4.90;3.45;;;18.50;99.90;;;;;;5076191;28;20259;-75
2022/07/07 10:44:38;;;;;;;4.10;3.65;;;18.60;99.90;;;;;;5075914;28;20204;-75
2022/07/07 10:47:33;;;;;;;3.90;3.28;;;18.70;99.90;;;;;;5076157;28;20193;-75
2022/07/07 10:50:01;;;;;;;7.43;3.22;;;18.90;99.90;;;;;;5076145;28;20262;-75
2022/07/07 10:52:29;;;;;;;5.72;3.35;;;18.70;99.90;;;;;;5075888;28;20197;-75
2022/07/07 10:54:59;;;;;;;4.63;2.92;;;18.50;99.90;;;;;;5075738;28;20232;-75
2022/07/07 10:57:27;;;;;;;5.57;3.03;;;18.80;99.90;;;;;;5076080;28;20232;-75
2022/07/07 11:00:16;;;;;;;4.03;3.05;;;19.60;99.90;;;;;;5075923;28;20270;-76
2022/07/07 11:02:47;;;;;;;3.90;2.92;;;19.60;99.90;;;;;;5075726;28;20590;-75
2022/07/07 11:05:32;;;;;;;4.97;2.88;;;19.40;99.90;;;;;;5075731;28;20197;-75
2022/07/07 11:08:11;;;;;;;5.68;2.85;;;19.90;99.90;;;;;;5075505;28;20289;-75
2022/07/07 11:10:54;;;;;;;4.28;2.88;;;19.10;99.90;;;;;;5075607;28;20733;-75
2022/07/07 11:13:25;;;;;;;7.80;3.20;;;18.60;99.90;;;;;;5074023;28;20220;-74
2022/07/07 11:15:53;;;;;;;7.45;3.63;;;18.50;99.90;;;;;;5075445;28;20241;-76
2022/07/07 11:18:21;;;;;;;7.30;3.40;;;18.40;99.90;;;;;;5075808;28;20254;-76
2022/07/07 11:21:00;;;;;;;3.53;3.22;;;18.70;99.90;;;;;;5075504;28;20201;-76
2022/07/07 11:23:28;;;;;;;4.13;3.03;;;18.90;99.90;;;;;;5075596;28;20211;-76
2022/07/07 11:25:56;;;;;;;3.75;3.38;;;18.80;99.90;;;;;;5075361;28;20412;-76
2022/07/07 11:28:25;;;;;;;4.60;3.70;;;18.80;99.90;;;;;;5075191;28;20568;-75
2022/07/07 11:31:02;;;;;;;4.18;3.05;;;19.10;99.90;;;;;;5075341;28;20292;-76
2022/07/07 11:33:30;;;;;;;5.05;3.35;;;19.20;99.90;;;;;;5075104;28;20691;-76
2022/07/07 11:35:56;;;;;;;6.53;3.45;;;19.00;99.90;;;;;;5075187;28;20650;-75
2022/07/07 11:38:28;;;;;;;3.85;3.08;;;19.00;99.90;;;;;;5074998;28;20225;-75
2022/07/07 11:40:55;;;;;;;5.85;3.47;;;19.40;99.90;;;;;;5075011;28;20533;-75
2022/07/07 11:43:22;;;;;;;3.95;2.97;;;19.60;99.90;;;;;;5074927;28;20717;-76
2022/07/07 11:45:49;;;;;;;5.47;3.10;;;19.50;99.90;;;;;;5074339;28;20254;-76
2022/07/07 11:48:16;;;;;;;4.30;3.25;;;19.50;99.90;;;;;;5074957;28;20553;-76
2022/07/07 11:50:45;;;;;;;4.95;3.33;;;19.70;99.90;;;;;;5074786;28;20250;-76
2022/07/07 11:53:13;;;;;;;3.67;2.80;;;19.60;99.90;;;;;;5074741;28;20205;-76
2022/07/07 11:55:40;;;;;;;7.18;3.33;;;19.40;99.90;;;;;;5074859;28;20298;-76
2022/07/07 11:58:08;;;;;;;6.22;3.40;;;19.60;99.90;;;;;;5074860;28;20193;-76
2022/07/07 12:00:36;;;;;;;5.07;3.05;;;19.60;99.90;;;;;;5074870;28;20201;-76
2022/07/07 12:03:05;;;;;;;5.82;2.85;;;19.40;99.90;;;;;;5074725;28;20652;-76
2022/07/07 12:05:34;;;;;;;6.32;3.00;;;19.30;99.90;;;;;;5074664;28;20251;-76
2022/07/07 12:08:03;;;;;;;3.00;2.72;;;19.30;99.90;;;;;;5074547;28;20197;-76
2022/07/07 12:10:33;;;;;;;3.50;3.20;;;19.10;99.90;;;;;;5074829;28;20267;-76
2022/07/07 12:13:01;;;;;;;3.35;2.83;;;19.00;99.90;;;;;;5074608;28;20193;-76
2022/07/07 12:15:29;;;;;;;3.92;2.97;;;19.00;99.90;;;;;;5074361;28;20316;-76
2022/07/07 12:17:56;;;;;;;3.78;2.90;;;19.00;99.90;;;;;;5074316;28;20266;-77
2022/07/07 12:20:23;;;;;;;3.92;3.50;;;18.70;99.90;;;;;;5074236;28;20197;-77
2022/07/07 12:22:57;;;;;;;6.22;3.17;;;18.50;99.90;;;;;;5074510;28;20193;-77
2022/07/07 12:25:26;;;;;;;7.00;4.05;;;18.50;99.90;;;;;;5074549;28;20258;-76
2022/07/07 12:27:54;;;;;;;3.60;3.30;;;18.50;99.90;;;;;;5074157;28;20648;-76
2022/07/07 12:30:21;;;;;;;4.35;3.95;;;18.30;99.90;;;;;;5074104;28;20197;-77
2022/07/07 12:32:48;;;;;;;9.93;4.03;;;18.00;99.90;;;;;;5074073;28;20293;-74
2022/07/07 12:35:29;;;;;;;6.72;4.47;;;17.40;99.90;;;;;;5073914;28;20543;-74
2022/07/07 12:37:56;;;;;;;7.97;5.82;;;16.90;99.90;;;;;;5073888;28;20239;-76
2022/07/07 12:40:25;;;;;;;5.90;5.30;;;16.20;99.90;;;;;;5074156;28;20193;-75
2022/07/07 12:42:51;;;;;;;8.65;6.55;;;15.60;99.90;;;;;;5074756;28;20197;-76
2022/07/07 12:45:19;;;;;;;7.72;6.93;;;15.70;99.90;;;;;;5073898;28;20197;-75
2022/07/07 12:47:47;;;;;;;8.30;6.97;;;15.60;99.90;;;;;;5073831;28;20250;-75
2022/07/07 12:50:14;;;;;;;9.45;6.70;;;15.70;99.90;;;;;;5073740;28;20269;-75
2022/07/07 12:52:41;;;;;;;10.77;7.53;;;15.80;99.90;;;;;;5073779;28;20254;-75